Time;durP1;ratioP1;P1;durP2;ratioP2;P2;SDS_P1;SDS_P2;PMS_P1;PMS_P2;Temp;Humidity;BMP_temperature;BMP_pressure;BME280_temperature;BME280_humidity;BME280_pressure;Samples;Min_cycle;Max_cycle;Signal;HPM_P1;HPM_P2
2023/01/16 00:01:21;;;;;;;;;52.75;38.00;;;;;;;;5061852;28;51560;-49
2023/01/16 00:04:06;;;;;;;;;53.25;35.25;;;;;;;;5061374;28;51109;-49
2023/01/16 00:06:50;;;;;;;;;54.00;39.75;;;;;;;;5061706;28;51008;-51
2023/01/16 00:09:34;;;;;;;;;48.75;33.00;;;;;;;;5061594;28;51490;-54
2023/01/16 00:12:19;;;;;;;;;51.75;38.25;;;;;;;;5080802;27;51169;-54
2023/01/16 00:15:03;;;;;;;;;52.75;36.75;;;;;;;;5061378;28;51481;-50
2023/01/16 00:17:49;;;;;;;;;46.75;35.50;;;;;;;;5060877;28;51015;-55
2023/01/16 00:20:33;;;;;;;;;45.00;36.25;;;;;;;;5061498;28;51137;-51
2023/01/16 00:23:18;;;;;;;;;18.25;6.25;;;;;;;;5061136;28;51537;-48
2023/01/16 00:26:09;;;;;;;;;45.50;35.50;;;;;;;;5061066;28;51595;-51
2023/01/16 00:28:53;;;;;;;;;55.50;39.75;;;;;;;;5060738;28;51182;-51
2023/01/16 00:31:37;;;;;;;;;52.25;38.00;;;;;;;;5061528;28;51205;-48
2023/01/16 00:34:23;;;;;;;;;52.75;39.00;;;;;;;;5061026;28;51125;-51
2023/01/16 00:37:07;;;;;;;;;49.25;36.25;;;;;;;;5060713;28;51188;-48
2023/01/16 00:39:52;;;;;;;;;51.50;36.50;;;;;;;;5060678;28;51539;-50
2023/01/16 00:42:37;;;;;;;;;52.00;38.00;;;;;;;;5060102;28;51165;-47
2023/01/16 00:45:21;;;;;;;;;54.50;38.50;;;;;;;;5061072;28;51103;-48
2023/01/16 00:48:06;;;;;;;;;48.25;35.75;;;;;;;;5060465;28;51115;-49
2023/01/16 00:50:50;;;;;;;;;49.00;36.25;;;;;;;;5060608;28;51562;-50
2023/01/16 00:53:34;;;;;;;;;51.75;38.00;;;;;;;;5060516;28;51063;-51
2023/01/16 00:56:19;;;;;;;;;48.00;39.50;;;;;;;;5051371;28;51221;-48
2023/01/16 00:59:03;;;;;;;;;49.25;39.00;;;;;;;;5060232;28;51012;-47
2023/01/16 01:01:48;;;;;;;;;53.25;38.50;;;;;;;;5060568;28;51478;-57
2023/01/16 01:04:32;;;;;;;;;50.50;39.25;;;;;;;;5060722;28;51042;-56
2023/01/16 01:07:16;;;;;;;;;49.75;38.25;;;;;;;;5060264;28;51039;-51
2023/01/16 01:10:01;;;;;;;;;57.25;39.00;;;;;;;;5060408;28;51184;-55
2023/01/16 01:12:45;;;;;;;;;50.25;38.25;;;;;;;;5060046;28;51420;-47
2023/01/16 01:15:30;;;;;;;;;49.75;38.50;;;;;;;;5060451;28;51685;-52
2023/01/16 01:18:14;;;;;;;;;55.50;41.50;;;;;;;;5059924;28;53273;-48
2023/01/16 01:20:59;;;;;;;;;53.75;40.75;;;;;;;;5060098;28;50999;-49
2023/01/16 01:23:43;;;;;;;;;55.75;38.50;;;;;;;;5059899;28;51505;-48
2023/01/16 01:26:28;;;;;;;;;52.75;39.75;;;;;;;;5060232;28;51583;-47
2023/01/16 01:29:12;;;;;;;;;57.50;41.50;;;;;;;;5059915;27;51090;-48
2023/01/16 01:31:56;;;;;;;;;63.25;45.00;;;;;;;;5059914;28;51054;-49
2023/01/16 01:34:40;;;;;;;;;56.50;43.00;;;;;;;;5060263;28;51219;-48
2023/01/16 01:37:25;;;;;;;;;58.00;43.50;;;;;;;;5060027;28;51561;-53
2023/01/16 01:40:09;;;;;;;;;61.00;44.75;;;;;;;;5059592;28;51172;-52
2023/01/16 01:42:54;;;;;;;;;58.50;44.75;;;;;;;;5059561;28;51110;-52
2023/01/16 01:45:38;;;;;;;;;64.25;46.50;;;;;;;;5059960;28;51039;-52
2023/01/16 01:48:27;;;;;;;;;63.25;45.00;;;;;;;;5041571;28;51033;-50
2023/01/16 01:51:17;;;;;;;;;58.75;43.75;;;;;;;;5059482;28;51084;-55
2023/01/16 01:54:07;;;;;;;;;58.75;45.00;;;;;;;;5058910;28;51038;-52
2023/01/16 01:56:55;;;;;;;;;61.50;45.00;;;;;;;;5059596;28;51070;-48
2023/01/16 01:59:42;;;;;;;;;61.50;47.25;;;;;;;;5059919;28;51158;-47
2023/01/16 02:02:30;;;;;;;;;62.50;48.00;;;;;;;;5059338;28;51229;-48
2023/01/16 02:05:19;;;;;;;;;64.25;46.25;;;;;;;;5059322;28;51694;-49
2023/01/16 02:08:04;;;;;;;;;68.00;50.00;;;;;;;;5059302;28;51101;-50
2023/01/16 02:10:56;;;;;;;;;66.50;48.50;;;;;;;;5059718;28;51165;-48
2023/01/16 02:13:40;;;;;;;;;67.75;49.00;;;;;;;;5059331;28;51098;-52
2023/01/16 02:19:43;;;;;;;;;58.50;43.00;;;;;;;;5059223;28;51722;-51
2023/01/16 02:22:46;;;;;;;;;65.00;47.75;;;;;;;;5058933;28;51185;-52
2023/01/16 02:25:46;;;;;;;;;62.00;46.25;;;;;;;;5059321;28;51134;-53
2023/01/16 02:28:49;;;;;;;;;69.25;49.00;;;;;;;;5059122;28;51187;-50
2023/01/16 02:31:52;;;;;;;;;61.25;46.50;;;;;;;;5059037;28;51234;-46
2023/01/16 02:34:51;;;;;;;;;71.75;50.00;;;;;;;;5059024;28;51004;-49
2023/01/16 02:37:54;;;;;;;;;64.75;49.00;;;;;;;;5059260;28;51117;-51
2023/01/16 02:40:49;;;;;;;;;66.00;50.25;;;;;;;;5058683;28;51205;-51
2023/01/16 02:43:56;;;;;;;;;65.75;50.00;;;;;;;;5058937;28;51067;-55
2023/01/16 02:47:07;;;;;;;;;72.00;54.00;;;;;;;;5058622;28;51579;-50
2023/01/16 02:49:51;;;;;;;;;71.25;50.00;;;;;;;;5063712;27;51169;-48
2023/01/16 02:52:36;;;;;;;;;73.00;53.50;;;;;;;;5058819;28;51016;-47
2023/01/16 02:55:36;;;;;;;;;68.25;51.25;;;;;;;;5058843;28;51160;-51
2023/01/16 02:58:21;;;;;;;;;71.25;53.00;;;;;;;;5058784;28;51567;-52
2023/01/16 03:01:06;;;;;;;;;72.75;53.00;;;;;;;;5042879;28;51142;-52
2023/01/16 03:03:54;;;;;;;;;67.25;51.50;;;;;;;;5051693;28;51027;-55
2023/01/16 03:06:44;;;;;;;;;63.00;48.50;;;;;;;;5061556;27;51186;-52
2023/01/16 03:09:31;;;;;;;;;63.25;47.25;;;;;;;;5080077;27;51026;-51
2023/01/16 03:12:15;;;;;;;;;65.75;44.50;;;;;;;;5083063;27;51272;-50
2023/01/16 03:15:18;;;;;;;;;65.50;47.00;;;;;;;;5082994;27;51112;-48
2023/01/16 03:18:05;;;;;;;;;64.00;48.00;;;;;;;;5083063;27;51100;-49
2023/01/16 03:20:52;;;;;;;;;64.25;47.00;;;;;;;;5082760;27;51155;-52
2023/01/16 03:23:40;;;;;;;;;66.50;47.00;;;;;;;;5082332;27;51759;-52
2023/01/16 03:26:24;;;;;;;;;61.50;47.00;;;;;;;;5082518;27;51124;-50
2023/01/16 03:29:15;;;;;;;;;66.75;48.25;;;;;;;;5082917;27;51033;-48
2023/01/16 03:32:02;;;;;;;;;61.50;46.25;;;;;;;;5082534;27;51581;-51
2023/01/16 03:34:51;;;;;;;;;65.25;47.75;;;;;;;;5082321;27;51224;-52
2023/01/16 03:37:42;;;;;;;;;65.25;46.50;;;;;;;;5082435;27;51046;-48
2023/01/16 03:40:29;;;;;;;;;58.25;45.25;;;;;;;;5081824;27;52075;-51
2023/01/16 03:43:17;;;;;;;;;65.50;47.00;;;;;;;;5082593;27;51949;-50
2023/01/16 03:46:01;;;;;;;;;58.00;43.50;;;;;;;;5082423;27;51086;-50
2023/01/16 03:49:04;;;;;;;;;61.75;46.00;;;;;;;;5082158;27;51198;-47
2023/01/16 03:51:51;;;;;;;;;68.00;47.00;;;;;;;;5081924;27;51334;-50
2023/01/16 03:54:41;;;;;;;;;64.50;46.00;;;;;;;;5082341;27;51032;-49
2023/01/16 03:57:27;;;;;;;;;62.75;46.50;;;;;;;;5081870;27;51136;-49
2023/01/16 04:00:12;;;;;;;;;63.75;47.25;;;;;;;;5082051;27;51114;-53
2023/01/16 04:03:07;;;;;;;;;63.50;47.00;;;;;;;;5081717;27;51515;-50
2023/01/16 04:06:07;;;;;;;;;63.50;47.00;;;;;;;;5079131;27;51072;-49
2023/01/16 04:08:53;;;;;;;;;61.50;46.25;;;;;;;;5061587;28;51044;-51
2023/01/16 04:11:39;;;;;;;;;61.50;44.00;;;;;;;;5061408;28;51102;-52
2023/01/16 04:14:25;;;;;;;;;61.00;45.25;;;;;;;;5061583;28;50956;-49
2023/01/16 04:17:09;;;;;;;;;61.50;46.25;;;;;;;;5060530;28;51007;-49
2023/01/16 04:19:54;;;;;;;;;63.25;45.75;;;;;;;;5061379;28;51040;-52
2023/01/16 04:22:39;;;;;;;;;63.25;47.00;;;;;;;;5060871;28;51641;-52
2023/01/16 04:25:23;;;;;;;;;62.00;46.25;;;;;;;;5061315;28;51154;-50
2023/01/16 04:28:07;;;;;;;;;62.50;47.75;;;;;;;;5051866;28;51107;-51
2023/01/16 04:30:52;;;;;;;;;60.25;45.00;;;;;;;;5060663;28;51192;-53
2023/01/16 04:33:36;;;;;;;;;62.00;47.25;;;;;;;;5061198;28;51177;-50
2023/01/16 04:36:21;;;;;;;;;65.75;49.25;;;;;;;;5061151;28;51193;-51
2023/01/16 04:39:05;;;;;;;;;66.00;47.25;;;;;;;;5060480;28;51710;-48
2023/01/16 04:41:50;;;;;;;;;61.25;46.50;;;;;;;;5060542;28;51008;-49
2023/01/16 04:44:34;;;;;;;;;61.75;46.00;;;;;;;;5061042;28;51168;-52
2023/01/16 04:47:19;;;;;;;;;53.50;44.00;;;;;;;;5060642;28;51100;-49
2023/01/16 04:50:04;;;;;;;;;66.50;47.00;;;;;;;;5060442;28;51214;-47
2023/01/16 04:52:48;;;;;;;;;58.50;45.75;;;;;;;;5076810;27;51636;-49
2023/01/16 04:55:33;;;;;;;;;62.25;46.50;;;;;;;;5055622;28;51094;-48
2023/01/16 04:58:17;;;;;;;;;68.00;50.25;;;;;;;;5060136;28;51101;-50
2023/01/16 05:01:02;;;;;;;;;66.25;49.00;;;;;;;;5060126;28;51180;-52
2023/01/16 05:03:46;;;;;;;;;66.75;50.25;;;;;;;;5060433;28;51729;-52
2023/01/16 05:06:31;;;;;;;;;64.50;48.50;;;;;;;;5060236;28;51086;-54
2023/01/16 05:09:15;;;;;;;;;64.25;47.00;;;;;;;;5060405;28;50991;-52
2023/01/16 05:12:00;;;;;;;;;64.50;48.50;;;;;;;;5059900;28;51470;-48
2023/01/16 05:14:44;;;;;;;;;62.75;48.00;;;;;;;;5060327;28;51230;-52
2023/01/16 05:17:29;;;;;;;;;69.25;49.75;;;;;;;;5060438;28;51128;-54
2023/01/16 05:20:13;;;;;;;;;69.25;49.50;;;;;;;;5042347;28;51174;-51
2023/01/16 05:22:57;;;;;;;;;69.00;51.50;;;;;;;;5059720;28;51346;-52
2023/01/16 05:25:42;;;;;;;;;66.25;50.25;;;;;;;;5060165;28;51129;-52
2023/01/16 05:28:27;;;;;;;;;69.25;50.50;;;;;;;;5072165;27;51156;-47
2023/01/16 05:31:11;;;;;;;;;68.00;51.75;;;;;;;;5079796;27;51147;-54
2023/01/16 05:33:56;;;;;;;;;69.25;51.50;;;;;;;;5080400;27;51183;-48
2023/01/16 05:36:40;;;;;;;;;68.50;49.00;;;;;;;;5080104;27;51118;-48
2023/01/16 05:39:24;;;;;;;;;64.25;49.50;;;;;;;;5079630;27;51378;-51
2023/01/16 05:42:20;;;;;;;;;62.00;49.25;;;;;;;;5078937;27;51731;-48
2023/01/16 05:45:05;;;;;;;;;70.25;51.00;;;;;;;;5080014;27;51097;-47
2023/01/16 05:47:49;;;;;;;;;68.25;52.75;;;;;;;;5079765;27;51477;-50
2023/01/16 05:50:33;;;;;;;;;74.50;53.50;;;;;;;;5080056;27;51099;-50
2023/01/16 05:53:18;;;;;;;;;70.25;52.50;;;;;;;;5079741;27;51138;-49
2023/01/16 05:56:07;;;;;;;;;76.75;59.50;;;;;;;;5079589;27;51200;-55
2023/01/16 05:58:51;;;;;;;;;77.75;62.25;;;;;;;;5080248;27;51156;-51
2023/01/16 06:01:35;;;;;;;;;77.25;62.25;;;;;;;;5079615;27;51460;-52
2023/01/16 06:04:20;;;;;;;;;79.75;58.75;;;;;;;;5079506;27;51127;-49
2023/01/16 06:07:04;;;;;;;;;76.00;63.00;;;;;;;;5079972;27;51660;-53
2023/01/16 06:09:49;;;;;;;;;77.50;61.75;;;;;;;;5079857;27;51080;-49
2023/01/16 06:12:33;;;;;;;;;82.50;65.75;;;;;;;;5079395;27;51428;-49
2023/01/16 06:15:18;;;;;;;;;81.00;67.25;;;;;;;;5079446;28;51088;-53
2023/01/16 06:18:02;;;;;;;;;77.00;61.25;;;;;;;;5079601;28;51165;-53
2023/01/16 06:20:47;;;;;;;;;73.50;58.00;;;;;;;;5079392;28;51091;-52
2023/01/16 06:23:31;;;;;;;;;84.25;67.50;;;;;;;;5079708;28;51045;-52
2023/01/16 06:26:16;;;;;;;;;78.50;65.25;;;;;;;;5079343;28;51061;-49
2023/01/16 06:29:00;;;;;;;;;80.25;68.00;;;;;;;;5079537;28;51196;-48
2023/01/16 06:31:45;;;;;;;;;83.50;71.25;;;;;;;;5059222;28;51557;-48
2023/01/16 06:34:29;;;;;;;;;78.50;67.25;;;;;;;;5059027;28;51250;-47
2023/01/16 06:37:14;;;;;;;;;77.75;59.25;;;;;;;;5058998;28;51446;-51
2023/01/16 06:39:59;;;;;;;;;89.75;78.00;;;;;;;;5059224;28;51590;-51
2023/01/16 06:42:44;;;;;;;;;78.75;68.25;;;;;;;;5063269;28;51571;-52
2023/01/16 06:45:28;;;;;;;;;77.75;63.50;;;;;;;;5062731;28;51155;-49
2023/01/16 06:48:13;;;;;;;;;79.00;60.75;;;;;;;;5063420;28;51118;-50
2023/01/16 06:50:58;;;;;;;;;79.25;64.25;;;;;;;;5058256;28;51181;-57
2023/01/16 06:53:43;;;;;;;;;70.25;51.75;;;;;;;;5063523;28;51135;-56
2023/01/16 06:56:27;;;;;;;;;84.50;70.50;;;;;;;;5062774;28;51142;-51
2023/01/16 06:59:12;;;;;;;;;75.25;63.75;;;;;;;;5063004;28;51089;-54
2023/01/16 07:01:56;;;;;;;;;71.25;57.50;;;;;;;;5062645;28;51378;-52
2023/01/16 07:04:41;;;;;;;;;73.75;59.00;;;;;;;;5062737;28;51208;-52
2023/01/16 07:07:25;;;;;;;;;74.25;58.75;;;;;;;;5062740;28;50988;-54
2023/01/16 07:12:55;;;;;;;;;73.75;61.75;;;;;;;;5040386;28;51188;-54
2023/01/16 07:25:02;;;;;;;;;79.00;66.00;;;;;;;;5070714;27;51052;-52
2023/01/16 07:27:48;;;;;;;;;109.50;85.50;;;;;;;;5046719;28;51530;-51
